createdAt,value
2022-12-16T00:01:20.036Z,50.46
2022-12-16T00:03:54.955Z,50.54
2022-12-16T00:06:24.117Z,50.81
2022-12-16T00:08:51.793Z,50.97
2022-12-16T00:11:20.482Z,50.92
2022-12-16T00:13:47.820Z,50.86
2022-12-16T00:16:17.284Z,51.09
2022-12-16T00:18:45.175Z,51.15
2022-12-16T00:21:12.857Z,51.24
2022-12-16T00:23:42.132Z,51.08
2022-12-16T00:26:09.545Z,51.35
2022-12-16T00:28:37.432Z,51.39
2022-12-16T00:31:05.236Z,51.35
2022-12-16T00:33:33.646Z,51.37
2022-12-16T00:36:00.905Z,51.65
2022-12-16T00:38:28.071Z,51.70
2022-12-16T00:40:55.285Z,51.63
2022-12-16T00:43:22.939Z,51.65
2022-12-16T00:45:52.308Z,51.92
2022-12-16T00:48:23.384Z,51.88
2022-12-16T00:50:52.692Z,51.97
2022-12-16T00:53:23.776Z,52.02
2022-12-16T00:55:51.403Z,52.02
2022-12-16T00:58:19.003Z,51.91
2022-12-16T01:00:45.989Z,52.23
2022-12-16T01:03:17.981Z,52.18
2022-12-16T01:05:48.400Z,52.13
2022-12-16T01:08:15.206Z,52.29
2022-12-16T01:10:42.256Z,52.12
2022-12-16T01:13:09.200Z,52.27
2022-12-16T01:15:38.144Z,52.28
2022-12-16T01:18:05.501Z,52.70
2022-12-16T01:20:33.672Z,52.32
2022-12-16T01:23:01.067Z,52.55
2022-12-16T01:25:28.306Z,52.63
2022-12-16T01:27:55.278Z,52.80
2022-12-16T01:30:22.345Z,52.60
2022-12-16T01:32:49.355Z,52.61
2022-12-16T01:35:44.232Z,52.60
2022-12-16T01:38:04.864Z,52.73
2022-12-16T01:40:31.907Z,52.82
2022-12-16T01:42:58.756Z,52.92
2022-12-16T01:45:26.024Z,52.98
2022-12-16T01:47:57.180Z,53.19
2022-12-16T01:50:24.523Z,53.12
2022-12-16T01:52:56.738Z,53.15
2022-12-16T01:55:34.060Z,53.25
2022-12-16T01:58:05.925Z,53.08
2022-12-16T02:00:33.556Z,53.13
2022-12-16T02:03:01.391Z,53.16
2022-12-16T02:05:29.616Z,53.53
2022-12-16T02:08:07.076Z,53.49
2022-12-16T02:10:55.002Z,53.34
2022-12-16T02:13:54.331Z,53.46
2022-12-16T02:16:48.169Z,53.75
2022-12-16T02:19:33.008Z,53.54
2022-12-16T02:22:08.835Z,53.58
2022-12-16T02:25:01.919Z,53.75
2022-12-16T02:28:04.497Z,53.59
2022-12-16T02:31:01.269Z,53.83
2022-12-16T02:33:40.966Z,53.76
2022-12-16T02:36:22.835Z,53.94
2022-12-16T02:39:09.134Z,53.70
2022-12-16T02:41:56.640Z,53.86
2022-12-16T02:44:36.063Z,53.72
2022-12-16T02:47:03.457Z,54.19
2022-12-16T02:49:30.799Z,53.99
2022-12-16T02:52:00.218Z,54.03
2022-12-16T02:54:28.626Z,54.20
2022-12-16T02:57:14.062Z,53.81
2022-12-16T02:59:55.889Z,53.96
2022-12-16T03:02:29.342Z,54.09
2022-12-16T03:05:08.595Z,54.41
2022-12-16T03:07:41.791Z,54.46
2022-12-16T03:10:12.746Z,54.44
2022-12-16T03:12:42.267Z,54.43
2022-12-16T03:15:12.550Z,54.45
2022-12-16T03:17:45.840Z,54.40
2022-12-16T03:20:18.048Z,54.20
2022-12-16T03:22:48.784Z,54.47
2022-12-16T03:25:16.758Z,54.56
2022-12-16T03:27:59.386Z,54.58
2022-12-16T03:30:33.442Z,54.71
2022-12-16T03:33:00.366Z,54.56
2022-12-16T03:35:45.696Z,54.57
2022-12-16T03:38:14.673Z,54.75
2022-12-16T03:40:43.428Z,54.76
2022-12-16T03:43:16.325Z,54.70
2022-12-16T03:45:46.358Z,54.63
2022-12-16T03:48:15.934Z,54.92
2022-12-16T03:50:43.031Z,54.98
2022-12-16T03:53:10.261Z,54.68
2022-12-16T03:55:37.145Z,54.95
2022-12-16T03:58:04.280Z,54.96
2022-12-16T04:00:31.378Z,54.72
2022-12-16T04:02:58.444Z,54.90
2022-12-16T04:05:25.848Z,54.95
2022-12-16T04:07:55.249Z,54.89
2022-12-16T04:10:44.517Z,54.79
2022-12-16T04:13:30.332Z,54.83
2022-12-16T04:16:16.261Z,55.08
2022-12-16T04:19:02.389Z,55.23
2022-12-16T04:21:48.044Z,55.21
2022-12-16T04:24:20.616Z,55.02
2022-12-16T04:27:11.907Z,55.05
2022-12-16T04:30:00.639Z,55.09
2022-12-16T04:32:27.826Z,55.27
2022-12-16T04:34:54.654Z,55.40
2022-12-16T04:37:40.654Z,55.12
2022-12-16T04:40:26.689Z,55.21
2022-12-16T04:43:12.222Z,55.24
2022-12-16T04:45:58.381Z,55.25
2022-12-16T04:48:43.940Z,55.23
2022-12-16T04:51:29.653Z,55.17
2022-12-16T04:54:15.406Z,55.44
2022-12-16T04:57:00.732Z,55.30
2022-12-16T04:59:46.323Z,55.21
2022-12-16T05:02:31.831Z,55.28
2022-12-16T05:05:17.401Z,55.20
2022-12-16T05:08:03.103Z,55.42
2022-12-16T05:10:48.408Z,55.39
2022-12-16T05:13:34.616Z,55.42
2022-12-16T05:16:20.449Z,55.57
2022-12-16T05:19:06.168Z,55.38
2022-12-16T05:21:51.434Z,55.29
2022-12-16T05:24:54.081Z,55.38
2022-12-16T05:27:39.688Z,55.40
2022-12-16T05:30:30.459Z,55.65
2022-12-16T05:33:19.198Z,55.57
2022-12-16T05:36:04.590Z,55.42
2022-12-16T05:38:50.134Z,55.47
2022-12-16T05:41:35.720Z,55.42
2022-12-16T05:44:21.398Z,55.56
2022-12-16T05:47:07.206Z,55.75
2022-12-16T05:49:52.645Z,55.61
2022-12-16T05:52:38.186Z,55.82
2022-12-16T05:55:25.942Z,55.84
2022-12-16T05:58:14.520Z,55.76
2022-12-16T06:00:59.969Z,55.59
2022-12-16T06:03:45.772Z,55.37
2022-12-16T06:06:31.433Z,55.32
2022-12-16T06:09:17.667Z,55.14
2022-12-16T06:12:03.428Z,54.81
2022-12-16T06:14:48.983Z,54.77
2022-12-16T06:17:34.702Z,53.64
2022-12-16T06:20:20.379Z,53.91
2022-12-16T06:23:12.612Z,54.72
2022-12-16T06:25:58.554Z,54.77
2022-12-16T06:28:46.051Z,55.12
2022-12-16T06:31:32.280Z,55.11
2022-12-16T06:34:18.110Z,55.21
2022-12-16T06:37:03.959Z,55.06
2022-12-16T06:39:52.949Z,55.27
2022-12-16T06:42:39.277Z,55.09
2022-12-16T06:45:28.895Z,55.08
2022-12-16T06:48:17.214Z,55.06
2022-12-16T06:51:03.007Z,54.95
2022-12-16T06:53:48.599Z,55.15
2022-12-16T06:56:34.396Z,54.71
2022-12-16T06:59:20.173Z,54.70
2022-12-16T07:02:05.974Z,54.64
2022-12-16T07:04:51.631Z,54.59
2022-12-16T07:07:37.371Z,54.93
2022-12-16T07:10:23.151Z,54.72
2022-12-16T07:13:09.068Z,54.48
2022-12-16T07:15:54.769Z,54.66
2022-12-16T07:18:40.083Z,54.57
2022-12-16T07:21:26.023Z,54.31
2022-12-16T07:24:11.718Z,54.19
2022-12-16T07:26:57.213Z,54.22
2022-12-16T07:29:43.054Z,54.11
2022-12-16T07:32:28.746Z,54.29
2022-12-16T07:35:14.516Z,53.29
2022-12-16T07:38:00.294Z,53.87
2022-12-16T07:40:45.776Z,53.94
2022-12-16T07:43:31.803Z,54.04
2022-12-16T07:46:17.993Z,54.34
2022-12-16T07:49:03.461Z,53.52
2022-12-16T07:51:48.990Z,53.35
2022-12-16T07:54:34.661Z,53.29
2022-12-16T07:57:20.397Z,53.65
2022-12-16T08:00:06.551Z,54.17
2022-12-16T08:02:52.215Z,53.88
2022-12-16T08:05:37.893Z,54.28
2022-12-16T08:08:23.644Z,54.36
2022-12-16T08:11:09.490Z,54.09
2022-12-16T08:13:55.098Z,53.74
2022-12-16T08:16:40.790Z,53.56
2022-12-16T08:19:26.437Z,53.54
2022-12-16T08:22:12.084Z,53.33
2022-12-16T08:25:08.736Z,53.81
2022-12-16T08:27:54.132Z,53.80
2022-12-16T08:30:41.711Z,53.74
2022-12-16T08:33:27.771Z,53.80
2022-12-16T08:36:17.539Z,53.85
2022-12-16T08:39:03.300Z,53.67
2022-12-16T08:41:48.807Z,53.75
2022-12-16T08:44:34.595Z,53.99
2022-12-16T08:47:20.333Z,53.61
2022-12-16T08:50:06.055Z,53.78
2022-12-16T08:52:51.611Z,53.80
2022-12-16T08:55:37.517Z,53.45
2022-12-16T08:58:23.103Z,53.64
2022-12-16T09:01:09.111Z,53.80
2022-12-16T09:03:56.452Z,53.33
2022-12-16T09:06:43.224Z,53.57
2022-12-16T09:09:29.355Z,53.40
2022-12-16T09:12:15.242Z,53.38
2022-12-16T09:15:00.636Z,53.58
2022-12-16T09:17:46.466Z,53.39
2022-12-16T09:20:31.823Z,53.26
2022-12-16T09:23:21.541Z,53.58
2022-12-16T09:26:07.420Z,53.21
2022-12-16T09:28:54.427Z,53.52
2022-12-16T09:31:40.125Z,53.62
2022-12-16T09:34:26.266Z,53.57
2022-12-16T09:37:11.781Z,53.59
2022-12-16T09:39:57.284Z,53.58
2022-12-16T09:42:55.520Z,53.51
2022-12-16T09:46:12.231Z,53.37
2022-12-16T09:49:10.074Z,53.27
2022-12-16T09:51:57.668Z,53.27
2022-12-16T09:54:48.693Z,53.27
2022-12-16T09:57:35.123Z,53.29
2022-12-16T10:00:24.755Z,53.12
2022-12-16T10:03:10.843Z,53.24
2022-12-16T10:06:20.748Z,53.25
2022-12-16T10:09:11.400Z,53.04
2022-12-16T10:12:26.541Z,53.06
2022-12-16T10:15:33.810Z,52.89
2022-12-16T10:18:25.007Z,52.74
2022-12-16T10:21:13.978Z,52.05
2022-12-16T10:24:18.232Z,52.15
2022-12-16T10:27:04.120Z,52.01
2022-12-16T10:29:52.383Z,52.16
2022-12-16T10:32:46.672Z,51.69
2022-12-16T10:35:46.655Z,51.92
2022-12-16T10:38:54.283Z,52.03
2022-12-16T10:41:44.756Z,51.94
2022-12-16T10:44:57.010Z,52.04
2022-12-16T10:47:42.824Z,51.82
2022-12-16T10:50:33.111Z,51.73
2022-12-16T10:53:23.729Z,51.91
2022-12-16T10:56:14.446Z,51.71
2022-12-16T10:59:12.674Z,50.43
2022-12-16T11:01:58.893Z,50.36
2022-12-16T11:04:52.393Z,50.48
2022-12-16T11:08:04.474Z,50.56
2022-12-16T11:10:54.395Z,50.54
2022-12-16T11:13:51.242Z,50.92
2022-12-16T11:16:43.251Z,50.99
2022-12-16T11:19:49.270Z,50.79
2022-12-16T11:22:41.585Z,50.62
2022-12-16T11:25:38.631Z,50.55
2022-12-16T11:28:24.820Z,50.79
2022-12-16T11:31:17.007Z,50.59
2022-12-16T11:34:03.713Z,50.76
2022-12-16T11:36:52.226Z,50.26
2022-12-16T11:39:42.985Z,50.14
2022-12-16T11:42:36.889Z,50.59
2022-12-16T11:45:24.940Z,50.60
2022-12-16T11:48:15.492Z,50.62
2022-12-16T11:51:11.726Z,50.86
2022-12-16T11:54:07.585Z,50.37
2022-12-16T11:57:01.519Z,50.62
2022-12-16T11:59:53.128Z,50.64
2022-12-16T12:03:05.320Z,50.22
2022-12-16T12:06:22.639Z,50.43
2022-12-16T12:09:37.473Z,50.26
2022-12-16T12:12:47.382Z,50.37
2022-12-16T12:16:00.642Z,50.70
2022-12-16T12:19:08.249Z,50.60
2022-12-16T12:22:07.882Z,50.43
2022-12-16T12:25:40.786Z,50.42
2022-12-16T12:28:32.487Z,50.51
2022-12-16T12:31:50.193Z,50.35
2022-12-16T12:35:02.532Z,50.61
2022-12-16T12:37:56.889Z,50.60
2022-12-16T12:41:09.663Z,50.66
2022-12-16T12:44:49.102Z,50.80
2022-12-16T12:47:36.397Z,51.06
2022-12-16T12:50:48.885Z,51.04
2022-12-16T12:53:43.857Z,51.27
2022-12-16T12:56:32.329Z,51.41
2022-12-16T12:59:23.744Z,51.35
2022-12-16T13:02:10.434Z,51.33
2022-12-16T13:04:58.434Z,51.48
2022-12-16T13:07:56.405Z,51.13
2022-12-16T13:10:46.029Z,51.37
2022-12-16T13:13:37.543Z,51.18
2022-12-16T13:16:28.425Z,50.99
2022-12-16T13:20:02.433Z,51.03
2022-12-16T13:22:54.509Z,50.99
2022-12-16T13:25:57.312Z,51.18
2022-12-16T13:28:45.077Z,50.03
2022-12-16T13:31:31.403Z,49.81
2022-12-16T13:34:27.023Z,49.79
2022-12-16T13:37:26.870Z,50.07
2022-12-16T13:40:32.901Z,49.90
2022-12-16T13:43:23.647Z,50.06
2022-12-16T13:46:19.548Z,49.67
2022-12-16T13:49:05.860Z,49.22
2022-12-16T13:52:00.244Z,49.86
2022-12-16T13:54:53.368Z,49.96
2022-12-16T13:57:43.576Z,49.83
2022-12-16T14:00:48.386Z,49.95
2022-12-16T14:03:43.144Z,49.79
2022-12-16T14:06:42.964Z,49.92
2022-12-16T14:09:58.776Z,49.77
2022-12-16T14:13:14.482Z,50.30
2022-12-16T14:16:27.078Z,50.18
2022-12-16T14:19:43.665Z,50.04
2022-12-16T14:22:44.900Z,49.94
2022-12-16T14:25:41.867Z,50.09
2022-12-16T14:28:44.204Z,50.12
2022-12-16T14:31:40.802Z,49.59
2022-12-16T14:34:55.298Z,49.38
2022-12-16T14:37:56.524Z,49.15
2022-12-16T14:40:52.972Z,49.51
2022-12-16T14:43:42.346Z,49.18
2022-12-16T14:46:52.470Z,49.48
2022-12-16T14:49:45.357Z,49.70
2022-12-16T14:52:47.488Z,49.77
2022-12-16T14:55:54.007Z,50.04
2022-12-16T14:58:43.488Z,50.33
2022-12-16T15:01:45.122Z,50.72
2022-12-16T15:04:38.064Z,50.92
2022-12-16T15:07:32.167Z,50.76
2022-12-16T15:10:19.991Z,50.92
2022-12-16T15:13:07.530Z,50.82
2022-12-16T15:16:01.390Z,51.04
2022-12-16T15:19:01.604Z,50.95
2022-12-16T15:21:47.791Z,50.98
2022-12-16T15:24:39.577Z,51.24
2022-12-16T15:27:45.751Z,50.85
2022-12-16T15:31:11.077Z,51.13
2022-12-16T15:33:59.548Z,51.08
2022-12-16T15:36:53.998Z,51.03
2022-12-16T15:40:02.454Z,50.93
2022-12-16T15:42:55.508Z,50.95
2022-12-16T15:45:52.411Z,50.92
2022-12-16T15:48:48.637Z,50.80
2022-12-16T15:52:01.643Z,51.32
2022-12-16T15:54:53.059Z,51.15
2022-12-16T15:57:54.555Z,51.56
2022-12-16T16:01:11.255Z,51.53
2022-12-16T16:04:14.320Z,51.50
2022-12-16T16:07:12.078Z,51.27
2022-12-16T16:09:59.966Z,51.06
2022-12-16T16:12:48.490Z,50.85
2022-12-16T16:15:56.781Z,50.92
2022-12-16T16:18:44.197Z,50.92
2022-12-16T16:21:33.116Z,50.87
2022-12-16T16:24:24.024Z,50.79
2022-12-16T16:27:21.130Z,50.64
2022-12-16T16:30:12.271Z,50.60
2022-12-16T16:32:58.551Z,50.36
2022-12-16T16:35:48.024Z,50.62
2022-12-16T16:38:34.297Z,50.10
2022-12-16T16:41:20.119Z,50.31
2022-12-16T16:44:06.457Z,50.43
2022-12-16T16:47:02.987Z,50.35
2022-12-16T16:49:51.618Z,50.36
2022-12-16T16:52:42.983Z,50.81
2022-12-16T16:55:36.707Z,50.68
2022-12-16T16:58:50.527Z,51.00
2022-12-16T17:01:39.008Z,50.83
2022-12-16T17:04:32.675Z,51.03
2022-12-16T17:07:23.061Z,50.88
2022-12-16T17:10:13.411Z,50.71
2022-12-16T17:13:04.654Z,50.53
2022-12-16T17:15:53.058Z,50.43
2022-12-16T17:18:44.699Z,50.82
2022-12-16T17:21:33.388Z,51.12
2022-12-16T17:24:19.468Z,51.08
2022-12-16T17:27:05.527Z,51.67
2022-12-16T17:29:52.589Z,51.49
2022-12-16T17:32:38.944Z,51.84
2022-12-16T17:35:25.541Z,51.78
2022-12-16T17:38:11.513Z,51.38
2022-12-16T17:40:58.271Z,51.16
2022-12-16T17:43:44.556Z,51.38
2022-12-16T17:46:33.135Z,51.38
2022-12-16T17:49:18.909Z,51.52
2022-12-16T17:52:05.119Z,51.20
2022-12-16T17:54:51.393Z,51.08
2022-12-16T17:57:37.280Z,51.04
2022-12-16T18:00:23.811Z,50.98
2022-12-16T18:03:19.769Z,50.99
2022-12-16T18:06:06.096Z,50.82
2022-12-16T18:08:51.861Z,50.65
2022-12-16T18:11:39.008Z,50.68
2022-12-16T18:14:30.036Z,50.88
2022-12-16T18:17:15.890Z,50.36
2022-12-16T18:20:02.760Z,50.45
2022-12-16T18:22:48.806Z,49.08
2022-12-16T18:25:35.157Z,48.85
2022-12-16T18:28:21.030Z,48.71
2022-12-16T18:31:07.124Z,48.42
2022-12-16T18:33:52.765Z,48.79
2022-12-16T18:36:38.782Z,49.24
2022-12-16T18:39:26.909Z,49.22
2022-12-16T18:42:14.485Z,48.88
2022-12-16T18:45:01.419Z,48.94
2022-12-16T18:47:47.442Z,48.75
2022-12-16T18:50:37.722Z,48.91
2022-12-16T18:53:24.632Z,48.58
2022-12-16T18:56:24.992Z,49.13
2022-12-16T18:59:10.628Z,49.06
2022-12-16T19:01:56.864Z,49.08
2022-12-16T19:04:43.280Z,49.17
2022-12-16T19:07:33.782Z,49.15
2022-12-16T19:10:19.701Z,49.37
2022-12-16T19:13:08.107Z,49.82
2022-12-16T19:15:55.515Z,49.73
2022-12-16T19:18:41.973Z,49.72
2022-12-16T19:21:33.085Z,49.53
2022-12-16T19:24:20.168Z,49.56
2022-12-16T19:27:15.227Z,49.60
2022-12-16T19:30:01.694Z,49.55
2022-12-16T19:32:47.647Z,49.99
2022-12-16T19:35:33.689Z,49.87
2022-12-16T19:38:19.372Z,49.95
2022-12-16T19:41:14.727Z,50.08
2022-12-16T19:44:06.141Z,50.45
2022-12-16T19:46:55.973Z,50.35
2022-12-16T19:49:44.623Z,50.58
2022-12-16T19:52:31.414Z,50.01
2022-12-16T19:55:22.254Z,49.69
2022-12-16T19:58:08.030Z,49.92
2022-12-16T20:00:55.668Z,49.65
2022-12-16T20:03:42.824Z,49.56
2022-12-16T20:06:32.402Z,50.08
2022-12-16T20:09:18.534Z,50.30
2022-12-16T20:12:07.246Z,50.38
2022-12-16T20:14:53.908Z,50.07
2022-12-16T20:17:44.664Z,50.17
2022-12-16T20:20:31.793Z,50.36
2022-12-16T20:23:25.118Z,50.09
2022-12-16T20:26:15.786Z,50.03
2022-12-16T20:29:02.683Z,49.13
2022-12-16T20:31:55.997Z,49.42
2022-12-16T20:34:42.081Z,49.27
2022-12-16T20:37:28.394Z,49.17
2022-12-16T20:40:16.475Z,49.25
2022-12-16T20:43:04.153Z,49.07
2022-12-16T20:45:51.774Z,49.04
2022-12-16T20:48:37.964Z,49.11
2022-12-16T20:51:27.005Z,48.91
2022-12-16T20:54:14.293Z,48.71
2022-12-16T20:57:00.467Z,48.80
2022-12-16T20:59:46.808Z,48.74
2022-12-16T21:02:37.101Z,48.70
2022-12-16T21:05:23.592Z,48.63
2022-12-16T21:08:09.928Z,48.80
2022-12-16T21:10:56.023Z,48.74
2022-12-16T21:13:42.899Z,48.51
2022-12-16T21:16:32.710Z,48.63
2022-12-16T21:19:19.963Z,48.60
2022-12-16T21:22:10.206Z,48.71
2022-12-16T21:24:56.364Z,48.70
2022-12-16T21:27:42.562Z,48.76
2022-12-16T21:30:38.181Z,48.68
2022-12-16T21:33:24.059Z,48.58
2022-12-16T21:36:14.039Z,47.97
2022-12-16T21:39:00.292Z,48.11
2022-12-16T21:41:46.290Z,48.35
2022-12-16T21:44:31.729Z,48.35
2022-12-16T21:47:17.976Z,48.48
2022-12-16T21:50:03.807Z,48.58
2022-12-16T21:52:51.671Z,49.15
2022-12-16T21:55:38.105Z,48.96
2022-12-16T21:58:30.008Z,49.16
2022-12-16T22:01:17.721Z,49.16
2022-12-16T22:04:03.652Z,49.27
2022-12-16T22:06:49.406Z,49.36
2022-12-16T22:09:35.384Z,49.33
2022-12-16T22:12:41.241Z,49.40
2022-12-16T22:15:27.751Z,49.77
2022-12-16T22:18:13.781Z,49.92
2022-12-16T22:21:00.029Z,49.89
2022-12-16T22:23:48.166Z,50.10
2022-12-16T22:26:34.256Z,50.14
2022-12-16T22:29:20.580Z,50.26
2022-12-16T22:32:06.418Z,50.42
2022-12-16T22:34:52.291Z,50.27
2022-12-16T22:37:38.706Z,50.45
2022-12-16T22:40:25.812Z,50.55
2022-12-16T22:43:11.397Z,50.55
2022-12-16T22:45:57.089Z,50.60
2022-12-16T22:48:42.892Z,50.89
2022-12-16T22:51:32.848Z,50.66
2022-12-16T22:54:19.498Z,50.79
2022-12-16T22:57:06.013Z,50.89
2022-12-16T22:59:51.948Z,50.78
2022-12-16T23:02:37.747Z,50.88
2022-12-16T23:05:27.718Z,50.93
2022-12-16T23:08:13.619Z,51.16
2022-12-16T23:11:00.173Z,50.85
2022-12-16T23:13:47.297Z,50.99
2022-12-16T23:16:33.915Z,51.07
2022-12-16T23:19:19.652Z,51.02
2022-12-16T23:22:07.604Z,51.11
2022-12-16T23:24:53.501Z,51.21
2022-12-16T23:27:39.673Z,51.30
2022-12-16T23:30:34.593Z,51.24
2022-12-16T23:33:21.648Z,51.49
2022-12-16T23:36:07.241Z,51.14
2022-12-16T23:38:53.229Z,51.26
2022-12-16T23:41:38.974Z,51.28
2022-12-16T23:44:24.547Z,51.55
2022-12-16T23:47:12.449Z,51.64
2022-12-16T23:49:58.096Z,51.70
2022-12-16T23:52:43.919Z,51.70
2022-12-16T23:55:29.505Z,51.57
2022-12-16T23:58:20.815Z,51.72
